Current Conditions
Mostly Clear
Conditions



Pressure
1005.92 (hPa) - 29.7 (inHG)
Visibility

10.0 (km) - 6.2 (miles)
Temperature
37  °C
Temperature
15  °C
Dewpoint
27  %
 Humidity
Wind Speed
16  km/h
9  kts
10  mph
4.5  m/s
Wind Direction
N
45°
E
90°
135°
S
180°
225°
W
270°
315°
 180°

Due South
Airport Data
LGTS
Thessaloniki Macedonia International Airport
Metar :LGTS 311520Z 18009KT CAVOK 37/15 Q1006 NOSIG
Sat 31st July 17:20 pm
Raw Metar Info
Raw METAR is the most common format in the world for the transmission of observational weather data. It is highly standardized through the International Civil Aviation Organization (ICAO), which allows it to be understood throughout most of the world.
API Info
Data Provided by
https://www.checkwx.com/weather/LGTS

Aviation Weather providing METAR, TAF, AIRMET, SIGMET and OUTLOOK Weather Reports
© Info
CSS/SVG/PHP scripts were developed by weather34.com for use in the weather34 template © 2015-2021

Guide Info provided by Metar-Wikipedia